Time;durP1;ratioP1;P1;durP2;ratioP2;P2;SDS_P1;SDS_P2;PMS_P1;PMS_P2;Temp;Humidity;BMP_temperature;BMP_pressure;BME280_temperature;BME280_humidity;BME280_pressure;Samples;Min_cycle;Max_cycle;Signal;HPM_P1;HPM_P2
2023/05/11 00:01:27;;;;;;;14.00;12.70;;;15.80;99.90;;;;;;4993265;28;20026;-49
2023/05/11 00:04:13;;;;;;;14.13;12.80;;;15.70;99.90;;;;;;4991299;28;20018;-48
2023/05/11 00:06:59;;;;;;;14.75;12.88;;;15.70;99.90;;;;;;4991619;28;20027;-49
2023/05/11 00:09:45;;;;;;;14.05;12.65;;;15.70;99.90;;;;;;4994113;28;20037;-51
2023/05/11 00:12:31;;;;;;;13.48;12.23;;;15.70;99.90;;;;;;4992898;28;20057;-53
2023/05/11 00:15:17;;;;;;;12.32;11.13;;;15.70;99.90;;;;;;4992431;28;20034;-52
2023/05/11 00:18:03;;;;;;;12.80;11.55;;;15.70;99.90;;;;;;4992553;28;20462;-48
2023/05/11 00:20:49;;;;;;;12.98;11.63;;;15.70;99.90;;;;;;4991215;28;20061;-52
2023/05/11 00:23:35;;;;;;;12.63;11.30;;;15.70;99.90;;;;;;5000520;28;20027;-53
2023/05/11 00:26:21;;;;;;;12.80;11.50;;;15.70;99.90;;;;;;4998888;28;20066;-50
2023/05/11 00:29:07;;;;;;;12.10;10.88;;;15.70;99.90;;;;;;4992796;28;20084;-50
2023/05/11 00:31:53;;;;;;;13.57;12.18;;;15.70;99.90;;;;;;4991242;28;20561;-50
2023/05/11 00:34:39;;;;;;;12.02;10.82;;;15.70;99.90;;;;;;4991220;28;20514;-51
2023/05/11 00:37:25;;;;;;;12.57;10.90;;;15.60;99.90;;;;;;4991210;28;20081;-50
2023/05/11 00:40:11;;;;;;;13.70;11.13;;;15.50;99.90;;;;;;4992013;28;20084;-49
2023/05/11 00:42:57;;;;;;;14.77;11.25;;;15.50;99.90;;;;;;4992589;28;20113;-49
2023/05/11 00:45:46;;;;;;;11.05;9.85;;;15.40;99.90;;;;;;4992729;28;20065;-49
2023/05/11 00:48:33;;;;;;;11.07;9.98;;;15.30;99.90;;;;;;4993226;28;20066;-50
2023/05/11 00:51:20;;;;;;;11.25;9.63;;;15.20;99.90;;;;;;4992480;28;20111;-50
2023/05/11 00:54:11;;;;;;;10.77;9.68;;;15.10;99.90;;;;;;4994656;28;20026;-49
2023/05/11 00:56:57;;;;;;;10.48;9.25;;;15.10;99.90;;;;;;4996609;28;20036;-49
2023/05/11 00:59:43;;;;;;;11.13;9.80;;;15.10;99.90;;;;;;4995802;28;20052;-49
2023/05/11 01:02:30;;;;;;;11.80;9.68;;;15.10;99.90;;;;;;4994047;28;20054;-51
2023/05/11 01:05:16;;;;;;;11.50;9.50;;;15.10;99.90;;;;;;4997180;28;20180;-48
2023/05/11 01:08:13;;;;;;;10.70;9.10;;;15.10;99.90;;;;;;4995144;28;20030;-48
2023/05/11 01:11:14;;;;;;;11.25;9.00;;;15.10;99.90;;;;;;4996523;28;20506;-49
2023/05/11 01:14:07;;;;;;;9.20;8.30;;;15.10;99.90;;;;;;4995296;28;20026;-49
2023/05/11 01:17:00;;;;;;;9.73;8.73;;;15.00;99.90;;;;;;4996375;28;20034;-50
2023/05/11 01:19:57;;;;;;;11.23;8.60;;;15.00;99.90;;;;;;4996427;28;20145;-49
2023/05/11 01:22:49;;;;;;;9.63;7.75;;;15.00;99.90;;;;;;4995849;28;20026;-50
2023/05/11 01:25:53;;;;;;;9.85;8.73;;;14.90;99.90;;;;;;4994436;28;20073;-51
2023/05/11 01:28:42;;;;;;;9.65;8.32;;;14.90;99.90;;;;;;4995419;28;20045;-50
2023/05/11 01:31:33;;;;;;;10.88;8.93;;;14.90;99.90;;;;;;4994928;28;20027;-49
2023/05/11 01:34:23;;;;;;;9.15;8.25;;;14.90;99.90;;;;;;4996039;28;20027;-49
2023/05/11 01:37:17;;;;;;;10.35;8.63;;;15.00;99.90;;;;;;4995461;28;20407;-49
2023/05/11 01:40:11;;;;;;;9.77;8.73;;;15.00;99.90;;;;;;4994555;28;20022;-49
2023/05/11 01:43:04;;;;;;;12.18;8.80;;;15.00;99.90;;;;;;5017967;28;20052;-50
2023/05/11 01:45:52;;;;;;;11.20;8.38;;;15.00;99.90;;;;;;5034164;28;20457;-50
2023/05/11 01:48:43;;;;;;;10.88;9.32;;;15.00;99.90;;;;;;5034398;28;20033;-52
2023/05/11 01:51:33;;;;;;;9.15;8.13;;;15.00;99.90;;;;;;5033508;28;20033;-48
2023/05/11 01:54:20;;;;;;;10.57;8.43;;;15.00;99.90;;;;;;5034687;28;20439;-49
2023/05/11 01:57:06;;;;;;;10.93;8.73;;;15.10;99.90;;;;;;5033803;28;20064;-51
2023/05/11 01:59:54;;;;;;;9.65;8.40;;;15.10;99.90;;;;;;5036782;28;20101;-52
2023/05/11 02:02:41;;;;;;;12.50;9.10;;;15.10;99.90;;;;;;5046332;28;20026;-52
2023/05/11 02:05:28;;;;;;;9.38;8.38;;;15.10;99.90;;;;;;5033976;28;20032;-48
2023/05/11 02:08:17;;;;;;;9.40;8.00;;;15.10;99.90;;;;;;5033847;28;20522;-53
2023/05/11 02:11:05;;;;;;;10.27;8.20;;;15.00;99.90;;;;;;5034270;28;20040;-52
2023/05/11 02:13:54;;;;;;;13.00;9.30;;;15.00;99.90;;;;;;5034504;28;20030;-50
2023/05/11 02:16:40;;;;;;;9.18;8.27;;;14.90;99.90;;;;;;5033684;28;20531;-50
2023/05/11 02:19:28;;;;;;;10.98;8.23;;;14.90;99.90;;;;;;5032434;28;20108;-50
2023/05/11 02:22:16;;;;;;;9.90;8.20;;;14.90;99.90;;;;;;5033747;28;20022;-49
2023/05/11 02:25:04;;;;;;;11.10;8.57;;;14.90;99.90;;;;;;5034301;28;20520;-49
2023/05/11 02:27:50;;;;;;;11.90;9.00;;;14.80;99.90;;;;;;5033061;28;20033;-50
2023/05/11 02:30:46;;;;;;;9.93;8.43;;;14.80;99.90;;;;;;5032533;28;20049;-49
2023/05/11 02:33:35;;;;;;;12.25;9.52;;;14.80;99.90;;;;;;5034680;28;20037;-52
2023/05/11 02:36:22;;;;;;;10.15;8.38;;;14.80;99.90;;;;;;5033163;28;20084;-50
2023/05/11 02:39:11;;;;;;;11.02;8.93;;;14.90;99.90;;;;;;5048880;28;20496;-54
2023/05/11 02:42:04;;;;;;;10.73;9.02;;;14.90;99.90;;;;;;5042532;28;20033;-48
2023/05/11 02:44:57;;;;;;;10.75;9.18;;;14.90;99.90;;;;;;5033557;28;20040;-49
2023/05/11 02:47:52;;;;;;;11.57;8.55;;;14.90;99.90;;;;;;5034066;28;20049;-49
2023/05/11 02:50:40;;;;;;;10.77;8.70;;;14.90;99.90;;;;;;5033916;28;20120;-51
2023/05/11 02:53:28;;;;;;;10.07;8.48;;;14.90;99.90;;;;;;5034421;28;20026;-49
2023/05/11 02:56:14;;;;;;;10.07;8.73;;;14.90;99.90;;;;;;5033393;28;20064;-48
2023/05/11 02:59:01;;;;;;;12.35;8.77;;;14.90;99.90;;;;;;5033629;28;20429;-50
2023/05/11 03:01:48;;;;;;;10.65;8.73;;;14.90;99.90;;;;;;5034068;28;20021;-49
2023/05/11 03:04:34;;;;;;;11.40;9.00;;;14.80;99.90;;;;;;5033119;28;20545;-48
2023/05/11 03:07:20;;;;;;;10.40;8.98;;;14.80;99.90;;;;;;5033050;28;20117;-48
2023/05/11 03:10:07;;;;;;;17.67;9.68;;;14.80;99.90;;;;;;5034867;28;20438;-49
2023/05/11 03:12:53;;;;;;;11.80;9.10;;;14.70;99.90;;;;;;5033882;28;20454;-51
2023/05/11 03:15:40;;;;;;;11.18;9.05;;;14.80;99.90;;;;;;5032751;28;20428;-50
2023/05/11 03:18:27;;;;;;;13.45;9.75;;;14.80;99.90;;;;;;5032989;28;20402;-49
2023/05/11 03:21:15;;;;;;;12.02;9.32;;;14.80;99.90;;;;;;5033025;28;20089;-49
2023/05/11 03:24:02;;;;;;;12.90;9.43;;;14.70;99.90;;;;;;5032130;28;20097;-52
2023/05/11 03:26:50;;;;;;;11.05;9.88;;;14.70;99.90;;;;;;5032766;28;20087;-49
2023/05/11 03:29:38;;;;;;;11.38;9.27;;;14.70;99.90;;;;;;5033542;28;20029;-52
2023/05/11 03:32:24;;;;;;;10.10;9.10;;;14.70;99.90;;;;;;5032837;28;20026;-50
2023/05/11 03:35:10;;;;;;;12.85;9.70;;;14.80;99.90;;;;;;5031800;28;20081;-54
2023/05/11 03:37:58;;;;;;;12.75;10.00;;;14.80;99.90;;;;;;5032064;28;20107;-55
2023/05/11 03:40:45;;;;;;;11.82;9.68;;;14.70;99.90;;;;;;5032947;28;20033;-54
2023/05/11 03:43:35;;;;;;;10.73;9.55;;;14.60;99.90;;;;;;5032749;28;20032;-52
2023/05/11 03:46:22;;;;;;;12.30;9.07;;;14.60;99.90;;;;;;5032651;28;20448;-49
2023/05/11 03:49:08;;;;;;;13.80;9.13;;;14.60;99.90;;;;;;5031915;28;20033;-50
2023/05/11 03:51:56;;;;;;;11.32;9.02;;;14.70;99.90;;;;;;5032627;28;20048;-51
2023/05/11 03:54:42;;;;;;;12.23;9.00;;;14.60;99.90;;;;;;5032510;28;20407;-49
2023/05/11 03:57:28;;;;;;;11.90;10.05;;;14.60;99.90;;;;;;5031048;28;20112;-50
2023/05/11 04:00:15;;;;;;;10.90;9.15;;;14.60;99.90;;;;;;5032205;28;20025;-51
2023/05/11 04:03:05;;;;;;;10.65;9.23;;;14.60;99.90;;;;;;5032440;28;20068;-50
2023/05/11 04:05:51;;;;;;;11.60;9.75;;;14.60;99.90;;;;;;5032631;28;20022;-54
2023/05/11 04:08:37;;;;;;;17.38;12.88;;;14.70;99.90;;;;;;5031147;28;20033;-53
2023/05/11 04:11:22;;;;;;;12.52;9.90;;;14.70;99.90;;;;;;5030806;28;20037;-50
2023/05/11 04:14:08;;;;;;;13.15;9.82;;;14.60;99.90;;;;;;5031041;28;20029;-49
2023/05/11 04:16:54;;;;;;;12.63;9.93;;;14.60;99.90;;;;;;5031698;28;20410;-53
2023/05/11 04:19:40;;;;;;;12.73;10.60;;;14.70;99.90;;;;;;5031222;28;20084;-50
2023/05/11 04:22:26;;;;;;;11.50;9.70;;;14.70;99.90;;;;;;5031096;28;20029;-54
2023/05/11 04:25:13;;;;;;;12.93;9.77;;;14.70;99.90;;;;;;5031058;28;20481;-49
2023/05/11 04:27:59;;;;;;;13.65;9.90;;;14.70;99.90;;;;;;5035280;28;20037;-49
2023/05/11 04:30:45;;;;;;;12.57;9.48;;;14.70;99.90;;;;;;5036460;28;20025;-49
2023/05/11 04:33:31;;;;;;;15.43;10.73;;;14.70;99.90;;;;;;5035524;28;20063;-48
2023/05/11 04:36:17;;;;;;;14.48;11.10;;;14.70;99.90;;;;;;5034471;28;20030;-50
2023/05/11 04:39:03;;;;;;;14.07;10.52;;;14.70;99.90;;;;;;5034420;28;20053;-49
2023/05/11 04:41:49;;;;;;;12.40;9.90;;;14.60;99.90;;;;;;5035262;28;20092;-52
2023/05/11 04:44:35;;;;;;;13.20;10.13;;;14.50;99.90;;;;;;5036277;28;20021;-55
2023/05/11 04:47:21;;;;;;;12.98;9.57;;;14.50;99.90;;;;;;5034730;28;20051;-52
2023/05/11 04:50:08;;;;;;;12.30;10.13;;;14.50;99.90;;;;;;5034471;28;20636;-49
2023/05/11 04:52:54;;;;;;;13.77;9.80;;;14.60;99.90;;;;;;5036213;28;20030;-53
2023/05/11 04:55:40;;;;;;;14.43;10.45;;;14.70;99.90;;;;;;5042682;28;20029;-53
2023/05/11 04:58:25;;;;;;;12.35;8.98;;;14.70;99.90;;;;;;5034989;28;20186;-52
2023/05/11 05:01:11;;;;;;;15.45;11.73;;;14.70;99.90;;;;;;5034567;28;20522;-50
2023/05/11 05:03:57;;;;;;;17.15;11.32;;;14.70;99.90;;;;;;5035095;28;20096;-54
2023/05/11 05:06:44;;;;;;;12.82;10.40;;;14.80;99.90;;;;;;5033522;28;20100;-51
2023/05/11 05:09:30;;;;;;;14.25;11.07;;;14.80;99.90;;;;;;5036926;28;20033;-48
2023/05/11 05:12:16;;;;;;;15.90;11.25;;;14.90;99.90;;;;;;5033928;28;20126;-53
2023/05/11 05:15:03;;;;;;;16.67;12.82;;;14.80;99.90;;;;;;5034017;28;20482;-50
2023/05/11 05:17:49;;;;;;;16.05;11.75;;;14.80;99.90;;;;;;5035028;28;20033;-54
2023/05/11 05:20:35;;;;;;;16.38;12.32;;;14.70;99.90;;;;;;5035599;28;20028;-49
2023/05/11 05:23:21;;;;;;;18.70;14.02;;;14.80;99.90;;;;;;5033755;28;20452;-49
2023/05/11 05:26:07;;;;;;;17.40;13.55;;;14.80;99.90;;;;;;5034001;28;20039;-49
2023/05/11 05:28:52;;;;;;;16.20;12.85;;;14.80;99.90;;;;;;5033668;28;20087;-49
2023/05/11 05:31:38;;;;;;;24.20;18.13;;;14.80;99.90;;;;;;5032757;28;20075;-51
2023/05/11 05:34:24;;;;;;;22.27;16.17;;;14.80;99.90;;;;;;5034210;28;20037;-49
2023/05/11 05:37:10;;;;;;;16.45;13.38;;;14.80;99.90;;;;;;5032753;28;20033;-52
2023/05/11 05:39:56;;;;;;;19.50;14.05;;;14.80;99.90;;;;;;5032046;28;20022;-49
2023/05/11 05:42:42;;;;;;;18.95;13.00;;;14.80;99.90;;;;;;5033278;28;20022;-50
2023/05/11 05:45:28;;;;;;;17.67;13.93;;;14.80;99.90;;;;;;5034372;28;20033;-49
2023/05/11 05:48:14;;;;;;;34.90;26.27;;;14.80;99.90;;;;;;5034492;28;20079;-48
2023/05/11 05:51:00;;;;;;;21.67;17.00;;;14.80;99.90;;;;;;5032683;28;20390;-50
2023/05/11 05:53:46;;;;;;;20.13;15.18;;;14.80;99.90;;;;;;5033390;28;20033;-50
2023/05/11 05:56:33;;;;;;;16.88;13.98;;;14.90;99.90;;;;;;5033469;28;20057;-51
2023/05/11 05:59:22;;;;;;;21.17;17.08;;;15.00;99.90;;;;;;5035415;28;20025;-51
2023/05/11 06:02:12;;;;;;;25.45;20.98;;;15.00;99.90;;;;;;5035010;28;20021;-51
2023/05/11 06:04:58;;;;;;;25.92;22.42;;;15.00;99.90;;;;;;5033591;28;20115;-51
2023/05/11 06:07:44;;;;;;;24.63;21.83;;;15.10;99.90;;;;;;5024076;28;20499;-55
2023/05/11 06:10:30;;;;;;;27.40;21.75;;;15.20;99.90;;;;;;5001204;28;20034;-54
2023/05/11 06:13:28;;;;;;;29.77;22.92;;;15.20;99.90;;;;;;5001570;28;20036;-55
2023/05/11 06:16:14;;;;;;;23.75;21.20;;;15.10;99.90;;;;;;4998278;28;20030;-50
2023/05/11 06:19:00;;;;;;;28.38;24.33;;;15.20;99.90;;;;;;5002961;28;20053;-50
2023/05/11 06:21:47;;;;;;;30.83;25.02;;;15.20;99.90;;;;;;5012601;28;20376;-49
2023/05/11 06:24:35;;;;;;;31.15;25.45;;;15.20;99.90;;;;;;5014675;28;20022;-49
2023/05/11 06:27:21;;;;;;;28.52;23.13;;;15.10;99.90;;;;;;5010564;28;20025;-49
2023/05/11 06:30:07;;;;;;;27.08;22.83;;;15.10;99.90;;;;;;5014774;28;20133;-52
2023/05/11 06:32:53;;;;;;;28.50;23.13;;;15.20;99.90;;;;;;5017515;28;20038;-52
2023/05/11 06:35:39;;;;;;;26.10;21.98;;;15.30;99.90;;;;;;4998053;28;20092;-51
2023/05/11 06:38:27;;;;;;;23.85;20.73;;;15.40;99.90;;;;;;4995475;28;20030;-57
2023/05/11 06:41:13;;;;;;;24.73;21.60;;;15.40;99.90;;;;;;4997229;28;20035;-53
2023/05/11 06:43:59;;;;;;;25.30;21.75;;;15.50;99.90;;;;;;4994301;28;20030;-54
2023/05/11 06:46:45;;;;;;;26.50;21.70;;;15.50;99.90;;;;;;5004298;28;20042;-53
2023/05/11 06:49:31;;;;;;;22.98;19.83;;;15.50;99.90;;;;;;5013539;28;20619;-53
2023/05/11 06:52:17;;;;;;;23.77;19.00;;;15.60;99.90;;;;;;5015578;28;20067;-52
2023/05/11 06:55:03;;;;;;;21.58;18.15;;;15.70;99.90;;;;;;5014584;28;20567;-51
2023/05/11 06:57:49;;;;;;;18.95;16.98;;;15.70;99.90;;;;;;5013917;28;20518;-55
2023/05/11 07:00:35;;;;;;;19.70;17.63;;;15.80;99.90;;;;;;5014472;28;20022;-49
2023/05/11 07:03:21;;;;;;;20.10;18.00;;;15.80;99.90;;;;;;5015858;28;20022;-56
2023/05/11 07:06:07;;;;;;;22.83;18.85;;;15.80;99.90;;;;;;5014477;28;20083;-49
2023/05/11 07:08:53;;;;;;;21.15;17.70;;;15.90;99.90;;;;;;5015079;28;20542;-55
2023/05/11 07:11:40;;;;;;;20.83;18.13;;;16.00;99.90;;;;;;5013928;28;20059;-49
2023/05/11 07:14:26;;;;;;;20.35;18.17;;;16.20;99.90;;;;;;5009969;28;20030;-50
2023/05/11 07:17:12;;;;;;;18.58;16.67;;;16.30;99.90;;;;;;4993529;28;20046;-47
2023/05/11 07:19:57;;;;;;;19.33;17.08;;;16.50;99.90;;;;;;4992828;28;20093;-51
2023/05/11 07:22:43;;;;;;;18.48;16.67;;;16.70;99.90;;;;;;4992505;28;20085;-50
2023/05/11 07:25:29;;;;;;;18.75;17.02;;;16.80;99.90;;;;;;4992774;28;20376;-51
2023/05/11 07:28:15;;;;;;;17.17;15.38;;;16.90;99.90;;;;;;4994578;28;20045;-49
2023/05/11 07:31:01;;;;;;;18.80;17.00;;;17.10;99.90;;;;;;5011107;28;20030;-55
2023/05/11 07:33:47;;;;;;;19.48;17.48;;;17.30;99.90;;;;;;5012356;28;20121;-53
2023/05/11 07:36:33;;;;;;;18.02;16.30;;;17.30;99.90;;;;;;5011288;28;20165;-52
2023/05/11 07:39:19;;;;;;;21.05;18.95;;;17.40;99.90;;;;;;5008199;28;20045;-51
2023/05/11 07:42:05;;;;;;;19.98;18.10;;;17.40;99.90;;;;;;5011990;28;20483;-52
2023/05/11 07:44:51;;;;;;;18.63;16.88;;;17.40;99.90;;;;;;5012456;28;20030;-54
2023/05/11 07:47:37;;;;;;;21.67;19.58;;;17.60;99.90;;;;;;5011293;28;20494;-51
2023/05/11 07:50:23;;;;;;;18.90;16.92;;;17.80;99.90;;;;;;5011065;28;20077;-56
2023/05/11 07:53:09;;;;;;;18.77;16.98;;;17.90;99.90;;;;;;5011596;28;20044;-53
2023/05/11 07:55:55;;;;;;;20.10;18.20;;;18.10;99.90;;;;;;5011050;28;20022;-54
2023/05/11 07:58:41;;;;;;;15.75;14.20;;;18.30;99.90;;;;;;5011655;28;20034;-53
2023/05/11 08:01:27;;;;;;;18.60;17.00;;;18.50;99.90;;;;;;5010180;28;20022;-50
2023/05/11 08:04:13;;;;;;;18.10;16.33;;;18.60;99.90;;;;;;5010961;28;20402;-51
2023/05/11 08:06:59;;;;;;;18.92;17.00;;;18.60;99.90;;;;;;5011965;28;20058;-48
2023/05/11 08:09:45;;;;;;;17.70;16.10;;;18.50;99.90;;;;;;5009519;28;20030;-48
2023/05/11 08:12:31;;;;;;;18.60;14.98;;;18.50;99.90;;;;;;5012944;28;20065;-48
2023/05/11 08:15:17;;;;;;;16.40;15.00;;;18.50;99.90;;;;;;5013392;28;20041;-51
2023/05/11 08:18:03;;;;;;;16.95;15.35;;;18.50;99.90;;;;;;5014387;28;20498;-47
2023/05/11 08:20:49;;;;;;;16.98;15.05;;;18.50;99.90;;;;;;5013725;28;20029;-53
2023/05/11 08:23:35;;;;;;;15.60;14.30;;;18.50;99.90;;;;;;5012569;28;20036;-50
2023/05/11 08:26:21;;;;;;;40.50;36.38;;;18.40;99.90;;;;;;5012116;28;20048;-50
2023/05/11 08:29:07;;;;;;;32.83;29.73;;;18.40;99.90;;;;;;5011444;28;20037;-51
2023/05/11 08:31:53;;;;;;;20.80;18.60;;;18.40;99.90;;;;;;5011689;28;20041;-51
2023/05/11 08:34:39;;;;;;;19.30;17.27;;;18.40;99.90;;;;;;5012538;28;20514;-52
2023/05/11 08:37:25;;;;;;;18.58;16.98;;;18.40;99.90;;;;;;5011196;28;20061;-52
2023/05/11 08:40:11;;;;;;;19.33;17.60;;;18.20;99.90;;;;;;5010951;28;20030;-50
2023/05/11 08:42:59;;;;;;;17.67;16.20;;;18.30;99.90;;;;;;5011614;28;20030;-49
2023/05/11 08:45:47;;;;;;;18.75;16.95;;;18.40;99.90;;;;;;5009646;28;20022;-49
2023/05/11 08:48:36;;;;;;;18.98;17.38;;;18.50;99.90;;;;;;5011531;28;20085;-53
2023/05/11 08:51:23;;;;;;;20.77;18.92;;;18.60;99.90;;;;;;5013390;28;20402;-53
2023/05/11 08:54:09;;;;;;;20.08;18.38;;;18.60;99.90;;;;;;5014440;28;20030;-53
2023/05/11 08:56:55;;;;;;;18.95;17.30;;;18.70;99.90;;;;;;5014160;28;20087;-52
2023/05/11 08:59:45;;;;;;;20.27;18.58;;;18.70;99.90;;;;;;5013562;28;20033;-56
2023/05/11 09:02:31;;;;;;;18.40;16.80;;;18.60;99.90;;;;;;5012143;28;20025;-52
2023/05/11 09:05:17;;;;;;;19.85;18.00;;;18.60;99.90;;;;;;5011975;28;20026;-49
2023/05/11 09:08:06;;;;;;;19.30;17.70;;;18.50;99.90;;;;;;5012030;28;20336;-49
2023/05/11 09:10:53;;;;;;;19.67;17.98;;;18.60;99.90;;;;;;5010968;28;20030;-51
2023/05/11 09:13:39;;;;;;;19.23;17.50;;;18.70;99.90;;;;;;5019463;28;20482;-51
2023/05/11 09:16:25;;;;;;;17.45;15.90;;;18.90;99.90;;;;;;5035067;28;20084;-51
2023/05/11 09:19:15;;;;;;;17.83;16.23;;;19.20;99.90;;;;;;5034003;28;20026;-51
2023/05/11 09:22:00;;;;;;;18.08;16.42;;;19.50;99.90;;;;;;5035254;28;20448;-49
2023/05/11 09:24:46;;;;;;;17.17;15.40;;;19.70;99.90;;;;;;5033725;28;20100;-52
2023/05/11 09:27:33;;;;;;;17.88;16.17;;;19.90;99.90;;;;;;5033063;28;20105;-53
2023/05/11 09:30:21;;;;;;;16.80;15.07;;;19.90;99.90;;;;;;5033310;28;20032;-51
2023/05/11 09:33:07;;;;;;;17.45;15.77;;;19.90;99.90;;;;;;5035168;28;20393;-52
2023/05/11 09:35:53;;;;;;;15.02;13.68;;;19.80;99.90;;;;;;5033221;28;20109;-52
2023/05/11 09:38:39;;;;;;;13.52;12.13;;;19.70;99.90;;;;;;5019104;28;20029;-51
2023/05/11 09:41:25;;;;;;;15.00;13.43;;;19.80;99.90;;;;;;5014279;28;20030;-48
2023/05/11 09:44:14;;;;;;;16.45;14.75;;;19.90;99.90;;;;;;5014032;28;20487;-50
2023/05/11 09:47:11;;;;;;;12.43;11.23;;;19.90;99.90;;;;;;5013650;28;20088;-50
2023/05/11 09:49:57;;;;;;;14.25;12.85;;;19.60;99.90;;;;;;5015010;28;20033;-52
2023/05/11 09:52:52;;;;;;;15.32;13.68;;;19.60;99.90;;;;;;5014376;28;20034;-49
2023/05/11 09:55:46;;;;;;;15.25;13.80;;;19.60;99.90;;;;;;5014774;28;20101;-50
2023/05/11 09:58:56;;;;;;;15.32;13.82;;;19.40;99.90;;;;;;5013787;28;20030;-50
2023/05/11 10:01:42;;;;;;;15.25;13.90;;;19.20;99.90;;;;;;5013337;28;20026;-50
2023/05/11 10:04:28;;;;;;;14.05;12.75;;;19.20;99.90;;;;;;5013756;28;20046;-53
2023/05/11 10:07:34;;;;;;;13.52;12.32;;;19.20;99.90;;;;;;5013361;28;20101;-46
2023/05/11 10:10:20;;;;;;;14.02;12.73;;;19.30;99.90;;;;;;5013108;28;20406;-48
2023/05/11 10:13:06;;;;;;;15.10;13.70;;;19.40;99.90;;;;;;5013756;28;20072;-47
2023/05/11 10:15:55;;;;;;;12.93;11.45;;;19.40;99.90;;;;;;5013307;28;20026;-51
2023/05/11 10:18:42;;;;;;;12.20;11.00;;;19.60;99.90;;;;;;5014222;28;20030;-48
2023/05/11 10:21:29;;;;;;;12.35;10.18;;;19.70;99.90;;;;;;5013913;28;20441;-48
2023/05/11 10:24:15;;;;;;;11.02;10.10;;;20.10;99.90;;;;;;5014125;28;20041;-49
2023/05/11 10:27:02;;;;;;;10.82;9.73;;;20.40;99.90;;;;;;5012049;28;20037;-49
2023/05/11 10:29:49;;;;;;;9.68;8.77;;;20.70;99.30;;;;;;5023193;28;20091;-49
2023/05/11 10:32:36;;;;;;;10.80;9.90;;;20.80;98.60;;;;;;5004899;28;20067;-50
2023/05/11 10:35:22;;;;;;;11.60;10.52;;;20.80;98.90;;;;;;4995098;28;20454;-47
2023/05/11 10:38:09;;;;;;;12.63;11.32;;;20.80;98.90;;;;;;5018997;28;20075;-47
2023/05/11 10:41:06;;;;;;;11.15;10.05;;;20.60;98.60;;;;;;5013576;28;20042;-49
2023/05/11 10:44:33;;;;;;;11.10;9.95;;;20.50;98.70;;;;;;5013209;28;20026;-50
2023/05/11 10:47:55;;;;;;;11.93;10.75;;;20.40;99.00;;;;;;5014291;28;20080;-51
2023/05/11 10:51:09;;;;;;;10.75;9.57;;;20.40;99.00;;;;;;5013489;28;20033;-51
2023/05/11 10:53:58;;;;;;;11.90;10.70;;;20.30;98.90;;;;;;5012562;28;20100;-49
2023/05/11 10:57:10;;;;;;;9.80;8.90;;;20.40;98.70;;;;;;5012468;28;20494;-49
2023/05/11 11:00:15;;;;;;;9.90;9.00;;;20.50;98.60;;;;;;5012984;28;20406;-48
2023/05/11 11:03:12;;;;;;;8.82;8.02;;;20.70;98.50;;;;;;5014604;28;20119;-51
2023/05/11 11:06:02;;;;;;;10.02;9.00;;;20.90;98.10;;;;;;5015902;28;20402;-50
2023/05/11 11:08:59;;;;;;;10.45;9.35;;;21.00;97.90;;;;;;5015619;28;20034;-50
2023/05/11 11:11:49;;;;;;;12.10;10.20;;;21.00;98.00;;;;;;5014342;28;20063;-50
2023/05/11 11:15:03;;;;;;;11.15;9.13;;;21.00;98.00;;;;;;5013765;28;20097;-49
2023/05/11 11:18:22;;;;;;;9.05;8.20;;;20.90;98.00;;;;;;5012494;28;20506;-49
2023/05/11 11:21:14;;;;;;;11.85;10.65;;;21.10;97.90;;;;;;5014107;28;20113;-52
2023/05/11 11:24:02;;;;;;;12.05;10.13;;;21.00;98.10;;;;;;5014050;28;20041;-51
2023/05/11 11:26:49;;;;;;;9.57;8.68;;;21.10;98.30;;;;;;5013405;28;20098;-52
2023/05/11 11:29:36;;;;;;;9.90;8.90;;;21.20;98.40;;;;;;5018956;28;20045;-54
2023/05/11 11:32:22;;;;;;;11.25;9.05;;;21.30;98.20;;;;;;5012670;28;20394;-50
2023/05/11 11:35:40;;;;;;;10.10;8.30;;;21.50;98.30;;;;;;5012398;28;20033;-54
2023/05/11 11:38:27;;;;;;;10.93;9.25;;;22.00;98.00;;;;;;5011581;28;20065;-51
2023/05/11 11:41:28;;;;;;;9.30;8.40;;;22.30;97.10;;;;;;5012291;28;20030;-49
2023/05/11 11:44:21;;;;;;;9.20;7.90;;;22.50;96.70;;;;;;4997584;28;20049;-50
2023/05/11 11:47:21;;;;;;;8.32;7.53;;;22.30;96.00;;;;;;4995033;28;20033;-54
2023/05/11 11:50:12;;;;;;;7.38;6.72;;;22.10;95.80;;;;;;4992339;28;20022;-50
2023/05/11 11:52:58;;;;;;;9.45;7.18;;;21.80;96.20;;;;;;4992183;28;20030;-49
2023/05/11 11:55:51;;;;;;;9.05;7.15;;;21.70;96.30;;;;;;4992649;28;20035;-56
2023/05/11 11:58:45;;;;;;;7.80;7.10;;;21.80;96.20;;;;;;4992354;28;20549;-53
2023/05/11 12:01:36;;;;;;;10.57;8.30;;;21.70;96.60;;;;;;4992272;28;20026;-49
2023/05/11 12:04:38;;;;;;;8.75;7.50;;;22.00;96.60;;;;;;4992499;28;20210;-52
2023/05/11 12:07:25;;;;;;;7.55;6.75;;;22.20;96.30;;;;;;4992033;28;20026;-53
2023/05/11 12:10:21;;;;;;;18.65;12.23;;;22.30;95.80;;;;;;4992846;28;20380;-50
2023/05/11 12:13:12;;;;;;;14.07;10.15;;;22.30;95.80;;;;;;4993922;28;20029;-50
2023/05/11 12:16:13;;;;;;;12.20;8.60;;;22.30;95.90;;;;;;4992840;28;20518;-55
2023/05/11 12:19:00;;;;;;;9.40;8.50;;;22.20;96.30;;;;;;4993459;28;20045;-52
2023/05/11 12:21:46;;;;;;;9.93;8.98;;;22.30;96.50;;;;;;4993654;28;20037;-53
2023/05/11 12:24:33;;;;;;;9.43;8.25;;;22.40;96.10;;;;;;4993501;28;20125;-53
2023/05/11 12:27:19;;;;;;;16.10;14.55;;;22.40;95.30;;;;;;4995595;28;20025;-52
2023/05/11 12:30:05;;;;;;;20.98;18.92;;;22.20;95.30;;;;;;5001242;28;20557;-50
2023/05/11 12:32:52;;;;;;;13.32;11.32;;;22.10;95.40;;;;;;5011968;28;20037;-52
2023/05/11 12:35:39;;;;;;;9.98;9.02;;;22.00;95.70;;;;;;5012247;28;20164;-53
2023/05/11 12:38:26;;;;;;;9.57;8.48;;;21.70;95.80;;;;;;5005048;28;20029;-56
2023/05/11 12:41:21;;;;;;;9.95;9.05;;;21.30;96.80;;;;;;4992183;28;20151;-53
2023/05/11 12:44:07;;;;;;;10.38;9.40;;;21.00;98.20;;;;;;4991918;28;20019;-52
2023/05/11 12:46:53;;;;;;;15.00;11.15;;;20.70;98.80;;;;;;4991887;28;20482;-48
2023/05/11 12:49:41;;;;;;;11.15;9.70;;;20.40;99.90;;;;;;4995149;28;20026;-47
2023/05/11 12:52:27;;;;;;;11.38;10.10;;;20.20;99.90;;;;;;5014742;28;20029;-50
2023/05/11 12:55:16;;;;;;;11.88;10.57;;;19.90;99.90;;;;;;5015429;28;20026;-51
2023/05/11 12:58:15;;;;;;;16.23;12.15;;;19.80;99.90;;;;;;5015643;28;20037;-54
2023/05/11 13:01:04;;;;;;;13.57;11.38;;;19.70;99.90;;;;;;5015413;28;20028;-55
2023/05/11 13:03:50;;;;;;;11.07;10.07;;;19.70;99.90;;;;;;5014595;28;20037;-52
2023/05/11 13:06:36;;;;;;;9.35;8.40;;;19.80;99.90;;;;;;5015084;28;20100;-52
2023/05/11 13:09:24;;;;;;;10.27;9.27;;;19.90;99.90;;;;;;4999250;28;20040;-53
2023/05/11 13:12:17;;;;;;;10.45;8.32;;;20.20;99.90;;;;;;4995576;28;20088;-52
2023/05/11 13:15:11;;;;;;;8.98;8.07;;;20.40;99.90;;;;;;4995627;28;20080;-50
2023/05/11 13:18:02;;;;;;;10.13;8.30;;;20.50;99.90;;;;;;4995226;28;20037;-53
2023/05/11 13:21:02;;;;;;;9.52;8.52;;;20.70;99.90;;;;;;4994537;28;20434;-49
2023/05/11 13:23:49;;;;;;;9.98;8.90;;;20.80;99.90;;;;;;4996695;28;20026;-54
2023/05/11 13:26:35;;;;;;;11.02;10.10;;;20.80;99.90;;;;;;4996330;28;20053;-50
2023/05/11 13:29:25;;;;;;;10.70;8.90;;;20.80;99.90;;;;;;4993895;28;20030;-52
2023/05/11 13:32:11;;;;;;;10.32;9.32;;;20.90;99.90;;;;;;5004734;28;20026;-58
2023/05/11 13:34:59;;;;;;;11.07;10.07;;;21.10;99.90;;;;;;4998120;28;20065;-48
2023/05/11 13:37:45;;;;;;;11.38;10.38;;;21.40;99.90;;;;;;5012528;28;20630;-49
2023/05/11 13:40:33;;;;;;;10.60;9.65;;;21.70;99.90;;;;;;5014347;28;20510;-51
2023/05/11 13:43:19;;;;;;;11.13;10.02;;;22.20;99.90;;;;;;5014054;28;20034;-49
2023/05/11 13:46:06;;;;;;;12.43;8.85;;;22.50;99.90;;;;;;5014590;28;20030;-49
2023/05/11 13:48:53;;;;;;;9.10;8.20;;;23.10;99.90;;;;;;5013763;28;20030;-51
2023/05/11 13:51:39;;;;;;;9.50;8.60;;;23.80;97.00;;;;;;5014514;28;20038;-54
2023/05/11 13:54:25;;;;;;;9.27;8.38;;;24.40;96.00;;;;;;5014852;28;20045;-47
2023/05/11 13:57:11;;;;;;;9.43;8.60;;;24.80;95.80;;;;;;5014517;28;20045;-46
2023/05/11 13:59:57;;;;;;;10.85;8.18;;;25.10;95.50;;;;;;5014530;28;20022;-49
2023/05/11 14:02:46;;;;;;;8.90;8.00;;;25.60;94.30;;;;;;5014946;28;20026;-53
2023/05/11 14:05:32;;;;;;;7.82;7.13;;;25.80;92.00;;;;;;5014559;28;20029;-50
2023/05/11 14:08:21;;;;;;;7.90;7.30;;;25.90;92.40;;;;;;5014199;28;20022;-54
2023/05/11 14:11:07;;;;;;;7.40;6.80;;;26.00;91.50;;;;;;5000206;28;20018;-51
2023/05/11 14:13:53;;;;;;;8.32;7.55;;;25.80;91.20;;;;;;5013505;28;20487;-49
2023/05/11 14:16:42;;;;;;;8.32;7.63;;;25.70;89.70;;;;;;5013720;28;20073;-52
2023/05/11 14:19:28;;;;;;;7.82;7.03;;;25.60;90.40;;;;;;5014995;28;20104;-49
2023/05/11 14:22:14;;;;;;;8.07;7.28;;;25.40;90.50;;;;;;5014560;28;20105;-50